Time;durP1;ratioP1;P1;durP2;ratioP2;P2;SDS_P1;SDS_P2;PMS_P1;PMS_P2;Temp;Humidity;BMP_temperature;BMP_pressure;BME280_temperature;BME280_humidity;BME280_pressure;Samples;Min_cycle;Max_cycle;Signal;HPM_P1;HPM_P2
2022/07/10 00:02:30;;;;;;;6.67;3.70;;;18.20;99.90;;;;;;5122941;28;20810;-82
2022/07/10 00:05:15;;;;;;;4.00;3.70;;;18.20;99.90;;;;;;5123093;28;20403;-82
2022/07/10 00:08:01;;;;;;;4.20;3.73;;;18.30;99.90;;;;;;5108587;28;20386;-81
2022/07/10 00:10:46;;;;;;;4.00;3.60;;;18.30;99.90;;;;;;5123971;28;20418;-81
2022/07/10 00:13:30;;;;;;;3.83;3.53;;;18.30;99.90;;;;;;5130864;28;20406;-79
2022/07/10 00:16:16;;;;;;;4.03;3.73;;;18.30;99.90;;;;;;5131944;28;20407;-79
2022/07/10 00:19:00;;;;;;;3.80;3.30;;;18.30;99.90;;;;;;5117394;28;20383;-78
2022/07/10 00:21:45;;;;;;;6.73;3.80;;;18.20;99.90;;;;;;5131855;28;20470;-79
2022/07/10 00:24:30;;;;;;;4.57;4.07;;;18.20;99.90;;;;;;5131810;28;20387;-81
2022/07/10 00:27:14;;;;;;;4.03;3.30;;;18.20;99.90;;;;;;5125018;28;20407;-81
2022/07/10 00:29:58;;;;;;;4.60;4.20;;;18.20;99.90;;;;;;5124047;28;20425;-82
2022/07/10 00:32:43;;;;;;;3.70;3.40;;;18.20;99.90;;;;;;5122872;28;20437;-81
2022/07/10 00:35:28;;;;;;;3.50;3.30;;;18.10;99.90;;;;;;5122489;28;20402;-82
2022/07/10 00:38:12;;;;;;;3.47;3.27;;;18.20;99.90;;;;;;5106624;28;20427;-82
2022/07/10 00:40:57;;;;;;;3.67;3.40;;;18.10;99.90;;;;;;5122078;28;20456;-82
2022/07/10 00:43:59;;;;;;;3.90;3.60;;;18.10;99.90;;;;;;5122331;28;20514;-82
2022/07/10 00:46:43;;;;;;;3.70;3.40;;;18.10;99.90;;;;;;5122237;28;20923;-82
2022/07/10 00:49:28;;;;;;;7.07;3.10;;;18.10;99.90;;;;;;5121948;28;20393;-82
2022/07/10 00:52:15;;;;;;;3.63;3.27;;;18.10;99.90;;;;;;5121158;28;20440;-81
2022/07/10 00:55:00;;;;;;;3.67;3.37;;;18.00;99.90;;;;;;5106329;28;20392;-81
2022/07/10 00:57:44;;;;;;;5.80;3.20;;;18.00;99.90;;;;;;5113589;28;20449;-81
2022/07/10 01:00:29;;;;;;;6.30;3.30;;;18.00;99.90;;;;;;5121994;28;20448;-81
2022/07/10 01:03:14;;;;;;;4.13;3.77;;;17.80;99.90;;;;;;5121792;28;20447;-81
2022/07/10 01:05:59;;;;;;;3.80;3.43;;;17.80;99.90;;;;;;5105989;28;20430;-82
2022/07/10 01:08:45;;;;;;;4.00;3.70;;;17.80;99.90;;;;;;5122505;28;20467;-81
2022/07/10 01:11:33;;;;;;;5.37;3.47;;;17.80;99.90;;;;;;5098005;28;20426;-80
2022/07/10 01:14:17;;;;;;;3.67;3.37;;;17.70;99.90;;;;;;5108872;28;20433;-82
2022/07/10 01:17:03;;;;;;;3.20;3.00;;;17.70;99.90;;;;;;5107281;28;20390;-81
2022/07/10 01:19:47;;;;;;;4.20;3.23;;;17.70;99.90;;;;;;5115650;28;20406;-84
2022/07/10 01:22:32;;;;;;;3.07;2.87;;;17.60;99.90;;;;;;5092200;28;20899;-81
2022/07/10 01:25:17;;;;;;;8.23;3.43;;;17.60;99.90;;;;;;5122451;28;20383;-81
2022/07/10 01:28:01;;;;;;;2.90;2.70;;;17.50;99.90;;;;;;5121712;28;20383;-82
2022/07/10 01:30:45;;;;;;;2.93;2.73;;;17.50;99.90;;;;;;5121139;28;20388;-81
2022/07/10 01:33:29;;;;;;;7.17;3.03;;;17.50;99.90;;;;;;5120846;28;20383;-82
2022/07/10 01:36:14;;;;;;;4.90;3.27;;;17.40;99.90;;;;;;5106761;28;20383;-81
2022/07/10 01:39:00;;;;;;;6.00;2.60;;;17.40;99.90;;;;;;5121496;28;20509;-81
2022/07/10 01:41:44;;;;;;;3.60;2.40;;;17.30;99.90;;;;;;5105992;28;20435;-82
2022/07/10 01:44:28;;;;;;;4.77;2.90;;;17.30;99.90;;;;;;5122130;28;20391;-82
2022/07/10 01:47:13;;;;;;;6.13;2.50;;;17.30;99.90;;;;;;5121595;28;20899;-83
2022/07/10 01:49:58;;;;;;;2.60;2.40;;;17.30;99.90;;;;;;5121434;28;20379;-81
2022/07/10 01:52:42;;;;;;;3.77;2.83;;;17.20;99.90;;;;;;5122240;28;20391;-81
2022/07/10 01:55:26;;;;;;;5.73;2.83;;;17.20;99.90;;;;;;5122424;28;20390;-81
2022/07/10 01:58:10;;;;;;;3.13;2.47;;;17.20;99.90;;;;;;5123802;28;20458;-79
2022/07/10 02:00:55;;;;;;;5.07;3.83;;;17.20;99.90;;;;;;5112020;28;20407;-79
2022/07/10 02:06:36;;;;;;;2.90;2.43;;;17.10;99.90;;;;;;5101935;28;20391;-79
2022/07/10 02:09:21;;;;;;;2.47;2.27;;;17.10;99.90;;;;;;5128160;28;20411;-79
2022/07/10 02:12:07;;;;;;;3.30;2.47;;;17.00;99.90;;;;;;5128136;28;20398;-79
2022/07/10 02:14:52;;;;;;;2.07;1.87;;;17.00;99.90;;;;;;5127993;28;20395;-82
2022/07/10 02:17:36;;;;;;;6.97;3.00;;;17.00;99.90;;;;;;5106458;28;20959;-80
2022/07/10 02:20:20;;;;;;;1.90;1.80;;;16.90;99.90;;;;;;5122598;28;20925;-82
2022/07/10 02:23:06;;;;;;;2.37;1.80;;;16.90;99.90;;;;;;5120618;28;20447;-81
2022/07/10 02:25:51;;;;;;;11.43;2.57;;;16.80;99.90;;;;;;5122389;28;20379;-81
2022/07/10 02:28:35;;;;;;;2.23;2.03;;;16.80;99.90;;;;;;5085279;28;20426;-81
2022/07/10 02:31:20;;;;;;;3.90;1.97;;;16.70;99.90;;;;;;5122077;28;20467;-81
2022/07/10 02:34:04;;;;;;;8.10;1.93;;;16.70;99.90;;;;;;5120666;28;20390;-81
2022/07/10 02:36:50;;;;;;;4.07;2.47;;;16.70;99.90;;;;;;5121635;28;20444;-83
2022/07/10 02:39:34;;;;;;;2.00;1.80;;;16.70;99.90;;;;;;5105401;28;20762;-81
2022/07/10 02:42:19;;;;;;;2.30;2.10;;;16.60;99.90;;;;;;5121515;28;20442;-82
2022/07/10 02:45:04;;;;;;;2.63;2.33;;;16.60;99.90;;;;;;5120737;28;20399;-83
2022/07/10 02:47:48;;;;;;;3.40;2.00;;;16.60;99.90;;;;;;5120724;28;20382;-82
2022/07/10 02:50:33;;;;;;;3.47;2.20;;;16.60;99.90;;;;;;5125354;28;20387;-80
2022/07/10 02:53:17;;;;;;;5.37;1.90;;;16.50;99.90;;;;;;5096428;28;20426;-80
2022/07/10 02:56:02;;;;;;;3.17;2.30;;;16.50;99.90;;;;;;5121296;28;20427;-81
2022/07/10 02:58:46;;;;;;;4.70;2.00;;;16.50;99.90;;;;;;5121328;28;20450;-81
2022/07/10 03:01:30;;;;;;;2.80;1.77;;;16.50;99.90;;;;;;5121188;28;20489;-81
2022/07/10 03:04:15;;;;;;;7.70;2.00;;;16.50;99.90;;;;;;5120285;28;20379;-80
2022/07/10 03:07:00;;;;;;;3.23;1.90;;;16.50;99.90;;;;;;5119958;28;20506;-82
2022/07/10 03:09:44;;;;;;;5.20;2.50;;;16.40;99.90;;;;;;5119182;28;20399;-82
2022/07/10 03:12:28;;;;;;;1.83;1.70;;;16.40;99.90;;;;;;5119575;28;20916;-82
2022/07/10 03:15:13;;;;;;;1.80;1.70;;;16.40;99.90;;;;;;5122974;28;20721;-82
2022/07/10 03:17:58;;;;;;;3.93;2.37;;;16.40;99.90;;;;;;5123706;28;20899;-82
2022/07/10 03:20:43;;;;;;;3.40;1.70;;;16.30;99.90;;;;;;5122880;28;20803;-82
2022/07/10 03:23:28;;;;;;;6.80;1.70;;;16.30;99.90;;;;;;5107897;28;20426;-82
2022/07/10 03:26:13;;;;;;;1.70;1.60;;;16.20;99.90;;;;;;5108289;28;20387;-82
2022/07/10 03:28:58;;;;;;;3.10;2.17;;;16.20;99.90;;;;;;5123385;28;20378;-82
2022/07/10 03:31:42;;;;;;;2.40;1.93;;;16.20;99.90;;;;;;5122667;28;20391;-82
2022/07/10 03:34:27;;;;;;;1.73;1.63;;;16.10;99.90;;;;;;5122929;28;20375;-82
2022/07/10 03:37:11;;;;;;;3.53;2.57;;;16.10;99.90;;;;;;5123469;28;20398;-82
2022/07/10 03:39:56;;;;;;;3.87;1.93;;;16.00;99.90;;;;;;5125697;28;20737;-81
2022/07/10 03:42:40;;;;;;;4.03;1.60;;;16.10;99.90;;;;;;5123979;28;20861;-82
2022/07/10 03:45:25;;;;;;;2.13;1.77;;;16.00;99.90;;;;;;5122470;28;20741;-82
2022/07/10 03:48:10;;;;;;;4.33;2.30;;;16.10;99.90;;;;;;5117484;28;20516;-81
2022/07/10 03:50:54;;;;;;;2.20;2.10;;;16.10;99.90;;;;;;5083643;28;20400;-82
2022/07/10 03:53:38;;;;;;;1.60;1.50;;;16.20;99.90;;;;;;5099282;28;20448;-82
2022/07/10 03:59:27;;;;;;;6.63;1.70;;;16.10;99.90;;;;;;5122135;28;20966;-82
2022/07/10 04:02:12;;;;;;;2.73;2.17;;;16.20;99.90;;;;;;5121744;28;20516;-82
2022/07/10 04:04:56;;;;;;;2.17;1.93;;;16.10;99.90;;;;;;5122220;28;20378;-81
2022/07/10 04:07:41;;;;;;;3.53;2.30;;;16.00;99.90;;;;;;5121875;28;20445;-80
2022/07/10 04:10:27;;;;;;;2.53;1.67;;;15.80;99.90;;;;;;5121819;28;20875;-82
2022/07/10 04:13:11;;;;;;;4.80;1.90;;;15.80;99.90;;;;;;5122228;28;20935;-81
2022/07/10 04:15:56;;;;;;;1.70;1.60;;;15.70;99.90;;;;;;5108468;28;20444;-81
2022/07/10 04:18:40;;;;;;;2.13;1.93;;;15.70;99.90;;;;;;5122139;28;20878;-81
2022/07/10 04:21:24;;;;;;;4.57;1.80;;;15.60;99.90;;;;;;5106592;28;20449;-82
2022/07/10 04:24:09;;;;;;;2.40;1.67;;;15.60;99.90;;;;;;5106509;27;20940;-81
2022/07/10 04:26:54;;;;;;;3.93;3.07;;;15.70;99.90;;;;;;5121668;28;20449;-82
2022/07/10 04:29:38;;;;;;;5.60;2.33;;;15.70;99.90;;;;;;5122697;28;20419;-82
2022/07/10 04:32:23;;;;;;;1.70;1.60;;;15.70;99.90;;;;;;5106716;28;20387;-82
2022/07/10 04:35:07;;;;;;;7.33;1.73;;;15.70;99.90;;;;;;5121690;28;20388;-82
2022/07/10 04:37:52;;;;;;;2.57;2.07;;;15.60;99.90;;;;;;5106588;28;20391;-82
2022/07/10 04:40:36;;;;;;;3.90;1.40;;;15.60;99.90;;;;;;5105721;28;20403;-82
2022/07/10 04:43:21;;;;;;;1.40;1.30;;;15.60;99.90;;;;;;5121632;28;20454;-82
2022/07/10 04:46:06;;;;;;;1.50;1.40;;;15.60;99.90;;;;;;5106298;28;20735;-81
2022/07/10 04:48:51;;;;;;;1.93;1.60;;;15.60;99.90;;;;;;5121960;28;20388;-82
2022/07/10 04:51:36;;;;;;;3.73;1.40;;;15.70;99.90;;;;;;5121599;28;20399;-82
2022/07/10 04:54:20;;;;;;;4.53;2.30;;;15.80;99.90;;;;;;5121669;28;20437;-82
2022/07/10 04:57:05;;;;;;;1.87;1.57;;;15.90;99.90;;;;;;5121674;28;20485;-82
2022/07/10 04:59:49;;;;;;;1.67;1.57;;;16.00;99.90;;;;;;5120443;28;20454;-82
2022/07/10 05:02:34;;;;;;;2.30;1.80;;;15.90;99.90;;;;;;5107826;28;20935;-79
2022/07/10 05:05:18;;;;;;;1.50;1.40;;;16.20;99.90;;;;;;5111842;28;20384;-79
2022/07/10 05:08:03;;;;;;;2.13;1.80;;;16.20;99.90;;;;;;5124199;28;20394;-81
2022/07/10 05:10:47;;;;;;;2.50;1.50;;;16.30;99.90;;;;;;5106672;28;20383;-82
2022/07/10 05:13:33;;;;;;;3.47;1.70;;;16.30;99.90;;;;;;5121735;28;20390;-82
2022/07/10 05:16:18;;;;;;;4.00;2.13;;;16.30;99.90;;;;;;5121655;28;20383;-82
2022/07/10 05:19:03;;;;;;;4.30;1.47;;;16.30;99.90;;;;;;5121023;28;20387;-82
2022/07/10 05:21:47;;;;;;;1.60;1.50;;;16.30;99.90;;;;;;5105985;28;20804;-82
2022/07/10 05:24:32;;;;;;;2.50;2.17;;;16.30;99.90;;;;;;5121922;28;20903;-81
2022/07/10 05:27:19;;;;;;;3.57;1.60;;;16.30;99.90;;;;;;5121612;28;20924;-82
2022/07/10 05:30:04;;;;;;;1.30;1.20;;;16.30;99.90;;;;;;5121022;28;20383;-82
2022/07/10 05:32:48;;;;;;;4.70;1.90;;;16.30;99.90;;;;;;5121632;28;20510;-81
2022/07/10 05:35:32;;;;;;;1.37;1.23;;;16.40;99.90;;;;;;5105582;28;20437;-81
2022/07/10 05:38:17;;;;;;;5.70;2.17;;;16.40;99.90;;;;;;5121126;28;20379;-82
2022/07/10 05:41:02;;;;;;;1.90;1.80;;;16.50;99.90;;;;;;5121298;28;20448;-82
2022/07/10 05:43:46;;;;;;;1.80;1.60;;;16.50;99.90;;;;;;5120752;28;20422;-82
2022/07/10 05:46:30;;;;;;;1.50;1.40;;;16.50;99.90;;;;;;5121565;28;20948;-82
2022/07/10 05:49:15;;;;;;;4.23;1.80;;;16.40;99.90;;;;;;5121596;28;20375;-82
2022/07/10 05:51:59;;;;;;;1.50;1.40;;;16.50;99.90;;;;;;5120738;28;20437;-82
2022/07/10 05:54:43;;;;;;;4.63;2.60;;;16.60;99.90;;;;;;5121718;28;20391;-82
2022/07/10 05:57:30;;;;;;;8.60;1.90;;;16.70;99.90;;;;;;5110015;28;20418;-79
2022/07/10 06:00:14;;;;;;;1.27;1.17;;;16.70;99.90;;;;;;5110949;28;20409;-79
2022/07/10 06:02:58;;;;;;;2.13;1.30;;;16.70;99.90;;;;;;5100209;28;20458;-79
2022/07/10 06:05:43;;;;;;;1.40;1.30;;;16.80;99.90;;;;;;5097344;28;20392;-79
2022/07/10 06:08:28;;;;;;;2.40;1.20;;;16.70;99.90;;;;;;5110588;28;20379;-82
2022/07/10 06:11:13;;;;;;;3.30;1.30;;;16.80;99.90;;;;;;5120370;28;20383;-81
2022/07/10 06:13:57;;;;;;;2.10;1.13;;;16.90;99.90;;;;;;5120363;28;20387;-82
2022/07/10 06:16:41;;;;;;;3.93;1.40;;;17.00;99.90;;;;;;5120029;28;20558;-81
2022/07/10 06:19:26;;;;;;;2.07;1.30;;;17.00;99.90;;;;;;5119972;28;20387;-82
2022/07/10 06:25:11;;;;;;;1.67;1.47;;;17.00;99.90;;;;;;5120222;28;20474;-82
2022/07/10 06:27:56;;;;;;;2.37;1.60;;;17.00;99.90;;;;;;5120002;28;20426;-82
2022/07/10 06:30:40;;;;;;;4.47;2.37;;;17.10;99.90;;;;;;5104515;28;20386;-82
2022/07/10 06:33:24;;;;;;;3.07;1.50;;;17.00;99.90;;;;;;5119549;28;20378;-82
2022/07/10 06:36:08;;;;;;;5.90;1.23;;;17.00;99.90;;;;;;5119913;28;20395;-81
2022/07/10 06:38:53;;;;;;;5.10;1.90;;;17.10;99.90;;;;;;5120718;28;20882;-81
2022/07/10 06:41:38;;;;;;;1.47;1.30;;;17.10;99.90;;;;;;5120741;28;20493;-82
2022/07/10 06:44:23;;;;;;;2.00;1.20;;;17.20;99.90;;;;;;5121089;28;20383;-81
2022/07/10 06:50:04;;;;;;;2.60;1.30;;;17.40;99.90;;;;;;5119455;28;20222;-82
2022/07/10 06:52:49;;;;;;;2.70;1.60;;;17.40;99.90;;;;;;5120473;28;20444;-81
2022/07/10 06:55:34;;;;;;;4.70;1.80;;;17.40;99.90;;;;;;5119484;28;20414;-82
2022/07/10 06:58:18;;;;;;;1.27;1.17;;;17.30;99.90;;;;;;5119863;28;20473;-81
2022/07/10 07:01:02;;;;;;;1.97;1.63;;;17.40;99.90;;;;;;5120003;28;20974;-82
2022/07/10 07:03:46;;;;;;;2.80;1.30;;;17.60;99.90;;;;;;5120292;28;20694;-82
2022/07/10 07:06:30;;;;;;;2.07;1.10;;;17.60;99.90;;;;;;5120150;28;20498;-82
2022/07/10 07:09:14;;;;;;;4.23;1.20;;;17.70;99.90;;;;;;5119886;28;20384;-82
2022/07/10 07:11:59;;;;;;;4.50;1.40;;;17.90;99.90;;;;;;5104522;28;20510;-82
2022/07/10 07:14:43;;;;;;;3.00;1.60;;;18.00;99.90;;;;;;5119950;28;20474;-83
2022/07/10 07:17:45;;;;;;;2.20;1.00;;;18.00;99.90;;;;;;5103724;28;20744;-81
2022/07/10 07:23:34;;;;;;;2.77;1.40;;;17.70;99.90;;;;;;5120291;28;20457;-82
2022/07/10 07:26:18;;;;;;;2.90;1.20;;;17.60;99.90;;;;;;5104118;28;20387;-81
2022/07/10 07:29:02;;;;;;;2.17;1.50;;;17.70;99.90;;;;;;5104552;28;20782;-82
2022/07/10 07:31:47;;;;;;;4.60;2.07;;;17.70;99.90;;;;;;5124284;28;20434;-80
2022/07/10 07:34:31;;;;;;;1.83;1.50;;;17.70;99.90;;;;;;5110370;28;20437;-79
2022/07/10 07:37:16;;;;;;;1.20;1.10;;;17.70;99.90;;;;;;5125971;28;20445;-81
2022/07/10 07:40:01;;;;;;;5.70;1.37;;;17.90;99.90;;;;;;5126128;28;20653;-82
2022/07/10 07:42:46;;;;;;;2.70;1.20;;;17.80;99.90;;;;;;5125131;28;20461;-81
2022/07/10 07:45:30;;;;;;;2.60;1.10;;;18.00;99.90;;;;;;5109482;28;20390;-82
2022/07/10 07:48:14;;;;;;;1.40;1.10;;;18.10;99.90;;;;;;5110522;28;20387;-80
2022/07/10 07:50:59;;;;;;;1.70;1.60;;;18.10;99.90;;;;;;5127566;28;20425;-82
2022/07/10 07:53:43;;;;;;;1.50;1.20;;;18.30;99.90;;;;;;5108961;28;20423;-79
2022/07/10 07:56:27;;;;;;;1.30;1.20;;;18.20;99.90;;;;;;5109135;28;20469;-80
2022/07/10 07:59:12;;;;;;;2.37;1.20;;;18.30;99.90;;;;;;5120661;28;20508;-82
2022/07/10 08:01:56;;;;;;;2.50;1.20;;;18.20;99.90;;;;;;5123029;28;20438;-83
2022/07/10 08:04:41;;;;;;;1.10;1.00;;;18.20;99.90;;;;;;5122757;28;20469;-82
2022/07/10 08:07:41;;;;;;;1.37;1.10;;;18.10;99.90;;;;;;5107563;28;20434;-82
2022/07/10 08:10:27;;;;;;;1.30;1.20;;;18.00;99.90;;;;;;5122878;28;20434;-82
2022/07/10 08:13:11;;;;;;;1.07;0.97;;;17.90;99.90;;;;;;5123721;28;20448;-81
2022/07/10 08:15:56;;;;;;;1.23;1.13;;;17.90;99.90;;;;;;5123082;28;20849;-81
2022/07/10 08:18:40;;;;;;;2.80;1.53;;;17.80;99.90;;;;;;5123546;28;20444;-82
2022/07/10 08:21:24;;;;;;;1.60;1.30;;;17.90;99.90;;;;;;5123529;28;20382;-81
2022/07/10 08:24:09;;;;;;;4.03;1.50;;;17.90;99.90;;;;;;5123325;28;20388;-82
2022/07/10 08:26:55;;;;;;;2.60;1.20;;;17.90;99.90;;;;;;5123219;28;20448;-83
2022/07/10 08:29:39;;;;;;;3.83;1.10;;;18.10;99.90;;;;;;5124294;28;20383;-82
2022/07/10 08:32:24;;;;;;;1.57;1.10;;;18.10;99.90;;;;;;5108329;28;20816;-82
2022/07/10 08:35:10;;;;;;;2.50;1.30;;;18.20;99.90;;;;;;5122975;28;20747;-81
2022/07/10 08:37:55;;;;;;;3.60;1.20;;;18.30;99.90;;;;;;5124021;28;20542;-83
2022/07/10 08:40:39;;;;;;;2.60;1.13;;;18.30;99.90;;;;;;5108879;28;20387;-82
2022/07/10 08:43:24;;;;;;;2.57;1.07;;;18.40;99.90;;;;;;5122872;28;20490;-82
2022/07/10 08:46:12;;;;;;;3.20;1.07;;;18.60;99.90;;;;;;5122612;28;20391;-82
2022/07/10 08:48:58;;;;;;;2.53;1.20;;;18.60;99.90;;;;;;5124125;28;20411;-81
2022/07/10 08:52:03;;;;;;;3.90;1.10;;;18.70;99.90;;;;;;5123643;28;20391;-79
2022/07/10 08:54:47;;;;;;;1.40;1.23;;;18.80;99.90;;;;;;5121891;28;20457;-83
2022/07/10 08:57:34;;;;;;;4.00;1.23;;;18.70;99.90;;;;;;5122443;28;20511;-81
2022/07/10 09:00:18;;;;;;;1.87;1.10;;;18.80;99.90;;;;;;5124325;28;20399;-81
2022/07/10 09:03:03;;;;;;;1.00;0.90;;;18.90;99.90;;;;;;5131183;28;20554;-79
2022/07/10 09:05:51;;;;;;;2.00;1.43;;;19.00;99.90;;;;;;5126147;28;20915;-80
2022/07/10 09:08:37;;;;;;;1.13;1.00;;;19.10;99.90;;;;;;5111813;28;20402;-79
2022/07/10 09:11:21;;;;;;;2.80;1.00;;;19.20;99.90;;;;;;5126106;28;20391;-79
2022/07/10 09:14:08;;;;;;;1.97;1.43;;;19.20;99.90;;;;;;5131719;28;20383;-80
2022/07/10 09:16:53;;;;;;;3.67;1.37;;;19.20;99.90;;;;;;5134282;28;20383;-80
2022/07/10 09:19:39;;;;;;;2.00;1.30;;;19.20;99.90;;;;;;5131032;28;20387;-82
2022/07/10 09:22:24;;;;;;;2.50;1.20;;;19.20;99.90;;;;;;5134297;28;20877;-81
2022/07/10 09:25:15;;;;;;;1.87;1.50;;;19.30;99.90;;;;;;5133441;28;20916;-80
2022/07/10 09:28:05;;;;;;;3.30;1.27;;;19.10;99.90;;;;;;5114033;28;20460;-83
2022/07/10 09:30:49;;;;;;;2.63;2.10;;;18.90;99.90;;;;;;5108701;28;20400;-82
2022/07/10 09:33:35;;;;;;;2.30;1.10;;;18.70;99.90;;;;;;5123631;28;20395;-80
2022/07/10 09:36:19;;;;;;;1.57;1.47;;;18.50;99.90;;;;;;5107950;28;20383;-82
2022/07/10 09:39:05;;;;;;;5.80;2.00;;;18.40;99.90;;;;;;5114278;28;20387;-79
2022/07/10 09:41:52;;;;;;;1.60;1.50;;;18.30;99.90;;;;;;5130151;28;20504;-78
2022/07/10 09:44:37;;;;;;;3.23;2.23;;;18.20;99.90;;;;;;5116313;28;20423;-81
2022/07/10 09:47:23;;;;;;;5.07;1.83;;;18.10;99.90;;;;;;5129537;28;20406;-78
2022/07/10 09:50:21;;;;;;;1.87;1.13;;;18.00;99.90;;;;;;5114964;28;20383;-79
2022/07/10 09:53:09;;;;;;;3.50;1.23;;;18.00;99.90;;;;;;5129890;28;20384;-78
2022/07/10 09:55:56;;;;;;;3.97;1.53;;;18.10;99.90;;;;;;5125393;28;20462;-81
2022/07/10 09:58:43;;;;;;;1.43;1.33;;;18.20;99.90;;;;;;5123470;28;20454;-83
2022/07/10 10:01:30;;;;;;;2.07;1.20;;;18.50;99.90;;;;;;5123268;28;20419;-82
2022/07/10 10:04:16;;;;;;;2.27;1.53;;;18.80;99.90;;;;;;5127917;28;20422;-81
2022/07/10 10:07:02;;;;;;;1.77;1.67;;;19.00;99.90;;;;;;5109792;28;20410;-82
2022/07/10 10:09:53;;;;;;;3.10;1.33;;;19.40;99.90;;;;;;5123400;28;20399;-82
2022/07/10 10:12:51;;;;;;;4.73;1.27;;;19.60;99.90;;;;;;5122367;28;20435;-82
2022/07/10 10:15:37;;;;;;;1.63;1.37;;;19.80;99.90;;;;;;5122094;28;20418;-80
2022/07/10 10:18:23;;;;;;;2.07;1.30;;;19.90;99.90;;;;;;5121351;28;20478;-82
2022/07/10 10:21:08;;;;;;;2.27;1.53;;;19.60;99.90;;;;;;5105329;28;20387;-82
2022/07/10 10:23:54;;;;;;;6.50;1.43;;;19.90;99.90;;;;;;5121101;28;20392;-79
2022/07/10 10:26:40;;;;;;;1.90;1.80;;;20.00;99.90;;;;;;5119913;28;20390;-82
2022/07/10 10:29:24;;;;;;;1.10;1.00;;;20.00;99.90;;;;;;5121453;28;20379;-82
2022/07/10 10:32:09;;;;;;;1.20;1.10;;;19.80;99.90;;;;;;5121223;28;20383;-83
2022/07/10 10:34:57;;;;;;;1.83;1.30;;;19.60;99.90;;;;;;5091242;28;20433;-81
2022/07/10 10:37:43;;;;;;;1.27;1.17;;;19.50;99.90;;;;;;5120888;28;20459;-82
2022/07/10 10:40:33;;;;;;;2.40;1.23;;;19.60;99.90;;;;;;5105853;28;20418;-82
2022/07/10 10:43:19;;;;;;;2.83;1.20;;;19.70;99.90;;;;;;5091108;28;20999;-83
2022/07/10 10:46:24;;;;;;;1.40;1.27;;;19.40;99.90;;;;;;5120896;28;20835;-82
2022/07/10 10:49:08;;;;;;;1.47;1.37;;;19.80;99.90;;;;;;5105767;28;20883;-81
2022/07/10 10:52:09;;;;;;;2.13;1.33;;;19.80;99.90;;;;;;5089884;28;20403;-80
2022/07/10 10:55:05;;;;;;;1.20;1.10;;;19.90;99.90;;;;;;5104676;28;20433;-82
2022/07/10 10:57:51;;;;;;;1.10;1.00;;;19.80;99.90;;;;;;5119488;28;20454;-82
2022/07/10 11:00:37;;;;;;;2.13;1.40;;;20.00;99.90;;;;;;5104310;28;20891;-82
2022/07/10 11:03:24;;;;;;;1.73;1.20;;;20.20;99.90;;;;;;5121509;28;20470;-80
2022/07/10 11:06:13;;;;;;;4.80;2.10;;;20.50;99.90;;;;;;5075862;28;20424;-81
2022/07/10 11:09:00;;;;;;;1.23;1.13;;;20.70;99.90;;;;;;5104919;28;20396;-82
2022/07/10 11:11:57;;;;;;;4.03;1.20;;;20.70;99.90;;;;;;5119308;28;20415;-82
2022/07/10 11:14:49;;;;;;;2.90;1.40;;;20.80;99.90;;;;;;5120013;28;20426;-82
2022/07/10 11:17:34;;;;;;;2.40;1.40;;;20.60;99.90;;;;;;5105639;28;20396;-82
2022/07/10 11:20:18;;;;;;;2.37;1.60;;;20.50;99.90;;;;;;5119782;28;20409;-82
2022/07/10 11:23:43;;;;;;;1.40;1.30;;;20.30;99.90;;;;;;5103468;28;20546;-80
2022/07/10 11:27:02;;;;;;;1.50;1.40;;;20.00;99.90;;;;;;5098548;28;20402;-83
2022/07/10 11:29:57;;;;;;;2.03;1.30;;;19.70;99.90;;;;;;5118997;28;20375;-80
2022/07/10 11:32:41;;;;;;;1.63;1.33;;;19.60;99.90;;;;;;5103859;28;20453;-82
2022/07/10 11:35:25;;;;;;;1.37;1.20;;;19.70;99.90;;;;;;5110054;28;20451;-82
2022/07/10 11:38:10;;;;;;;1.50;1.40;;;19.90;99.90;;;;;;5132144;28;20410;-85
2022/07/10 11:40:54;;;;;;;1.30;1.20;;;20.00;99.90;;;;;;5126310;28;20379;-85
2022/07/10 11:43:52;;;;;;;3.20;1.30;;;20.40;99.90;;;;;;5125285;28;20488;-84
2022/07/10 11:46:38;;;;;;;2.30;1.20;;;20.70;99.90;;;;;;5125612;28;20421;-85
2022/07/10 11:49:23;;;;;;;1.27;1.07;;;20.80;99.90;;;;;;5126013;28;20445;-82
2022/07/10 11:52:08;;;;;;;1.50;1.40;;;20.90;99.90;;;;;;5120047;28;20383;-82
2022/07/10 11:54:53;;;;;;;4.00;1.40;;;21.10;99.90;;;;;;5134106;28;20394;-81
2022/07/10 11:57:41;;;;;;;1.63;1.43;;;20.90;99.90;;;;;;5139217;28;20463;-84
2022/07/10 12:00:29;;;;;;;1.57;1.20;;;20.90;99.90;;;;;;5076763;28;20408;-84
2022/07/10 12:03:21;;;;;;;1.33;1.23;;;20.50;99.90;;;;;;5072810;28;20456;-83
2022/07/10 12:06:07;;;;;;;1.50;1.30;;;20.30;99.90;;;;;;5062129;28;20425;-81
2022/07/10 12:08:51;;;;;;;1.23;1.13;;;20.10;99.90;;;;;;5059884;28;20409;-85
2022/07/10 12:11:37;;;;;;;1.70;1.33;;;20.00;99.90;;;;;;5060567;28;20401;-85
2022/07/10 12:14:22;;;;;;;1.40;1.30;;;20.00;99.90;;;;;;5060058;28;20404;-85
2022/07/10 12:17:12;;;;;;;2.50;1.20;;;20.00;99.90;;;;;;5061868;28;20391;-83
2022/07/10 12:19:57;;;;;;;1.60;1.10;;;19.90;99.90;;;;;;5060933;28;20429;-84
2022/07/10 12:22:41;;;;;;;3.03;1.50;;;19.70;99.90;;;;;;5032431;28;20461;-83
2022/07/10 12:25:26;;;;;;;1.27;1.17;;;20.10;99.90;;;;;;5059408;28;20518;-84
2022/07/10 12:28:12;;;;;;;5.73;1.40;;;20.50;99.90;;;;;;5058832;28;20814;-84
2022/07/10 12:30:56;;;;;;;1.67;1.20;;;21.20;99.90;;;;;;5084358;28;20403;-84
2022/07/10 12:33:41;;;;;;;4.20;1.27;;;21.80;99.90;;;;;;5123240;28;20403;-85
2022/07/10 12:36:26;;;;;;;2.13;1.60;;;21.40;99.90;;;;;;5123832;28;20784;-84
2022/07/10 12:39:11;;;;;;;1.40;1.30;;;21.30;99.90;;;;;;5123812;28;20410;-85
2022/07/10 12:42:03;;;;;;;1.00;0.90;;;21.20;99.90;;;;;;5123388;28;20470;-85
2022/07/10 12:44:49;;;;;;;5.03;1.90;;;21.00;99.90;;;;;;5122404;28;20887;-85
2022/07/10 12:47:47;;;;;;;3.00;1.43;;;21.00;99.90;;;;;;5108219;28;20441;-84
2022/07/10 12:50:32;;;;;;;2.40;1.67;;;21.20;99.90;;;;;;5106890;28;20434;-84
2022/07/10 12:53:16;;;;;;;2.57;1.47;;;21.50;99.90;;;;;;5107263;28;20475;-85
2022/07/10 12:56:01;;;;;;;3.73;1.70;;;21.70;99.90;;;;;;5091473;28;20450;-85
2022/07/10 12:58:45;;;;;;;1.40;1.30;;;21.40;99.90;;;;;;5123717;28;20743;-85
2022/07/10 13:01:43;;;;;;;2.77;1.50;;;21.60;99.90;;;;;;5108083;28;20828;-83
2022/07/10 13:04:28;;;;;;;1.40;1.30;;;22.20;99.90;;;;;;5123477;28;20383;-82
2022/07/10 13:07:14;;;;;;;1.27;1.17;;;22.60;99.90;;;;;;5108353;28;20454;-85
2022/07/10 13:10:00;;;;;;;1.33;1.20;;;23.60;98.30;;;;;;5095013;28;20406;-85
2022/07/10 13:12:44;;;;;;;3.23;1.50;;;24.20;95.10;;;;;;5125541;28;20490;-85
2022/07/10 13:15:30;;;;;;;1.87;1.50;;;23.60;93.80;;;;;;5108668;28;20745;-85
2022/07/10 13:18:17;;;;;;;3.10;1.33;;;23.10;95.00;;;;;;5108644;28;20712;-85
2022/07/10 13:21:03;;;;;;;2.40;1.13;;;22.60;95.80;;;;;;5129760;28;20435;-85
2022/07/10 13:23:49;;;;;;;4.30;1.30;;;22.40;97.00;;;;;;5133726;28;20414;-85
2022/07/10 13:26:34;;;;;;;2.13;1.20;;;22.10;97.30;;;;;;5134436;28;20379;-85
2022/07/10 13:29:18;;;;;;;3.13;1.83;;;22.10;99.30;;;;;;5106015;28;20379;-85
2022/07/10 13:32:03;;;;;;;1.60;1.27;;;22.00;97.80;;;;;;5122222;28;20382;-84
2022/07/10 13:34:47;;;;;;;2.80;1.30;;;22.10;97.60;;;;;;5136364;28;20503;-85
2022/07/10 13:37:33;;;;;;;1.80;1.20;;;22.10;95.70;;;;;;5119750;28;20375;-85
2022/07/10 13:40:19;;;;;;;1.33;1.20;;;22.40;98.20;;;;;;5134777;28;20409;-82
2022/07/10 13:43:05;;;;;;;4.03;1.73;;;22.90;96.00;;;;;;5104650;28;20450;-84
2022/07/10 13:45:50;;;;;;;1.33;1.13;;;23.50;93.00;;;;;;5119526;28;20402;-84
2022/07/10 13:48:39;;;;;;;1.50;1.40;;;23.70;92.80;;;;;;5118811;28;20390;-83
2022/07/10 13:51:24;;;;;;;3.20;1.67;;;23.60;93.50;;;;;;5079709;28;20433;-85
2022/07/10 13:54:09;;;;;;;1.30;1.20;;;23.30;92.40;;;;;;5121701;28;20516;-85
2022/07/10 13:56:54;;;;;;;4.43;1.40;;;22.70;94.80;;;;;;5103746;28;20614;-86
2022/07/10 13:59:38;;;;;;;5.13;1.30;;;22.50;96.90;;;;;;5085346;28;20443;-85
2022/07/10 14:02:24;;;;;;;4.00;1.77;;;22.30;95.30;;;;;;5121565;28;20514;-85
2022/07/10 14:05:09;;;;;;;2.90;1.40;;;22.10;97.70;;;;;;5116586;28;20399;-85
2022/07/10 14:07:54;;;;;;;3.33;1.80;;;22.20;97.80;;;;;;5120364;28;20387;-85
2022/07/10 14:10:38;;;;;;;3.33;1.40;;;22.40;94.20;;;;;;5121386;28;20958;-86
2022/07/10 14:13:23;;;;;;;2.23;1.60;;;22.30;95.20;;;;;;5105563;28;20914;-85
2022/07/10 14:16:10;;;;;;;3.33;1.60;;;22.00;96.20;;;;;;5120181;28;20395;-84
2022/07/10 14:18:54;;;;;;;1.67;1.10;;;22.60;94.10;;;;;;5120622;28;20450;-83
2022/07/10 14:21:41;;;;;;;1.77;1.20;;;22.80;92.50;;;;;;5127640;28;20415;-81
2022/07/10 14:24:25;;;;;;;2.17;1.20;;;22.80;91.00;;;;;;5129219;28;20479;-80
2022/07/10 14:27:10;;;;;;;1.60;1.27;;;22.70;91.00;;;;;;5129505;28;20410;-79
2022/07/10 14:29:55;;;;;;;1.20;1.10;;;22.50;91.70;;;;;;5114130;28;20399;-80
2022/07/10 14:32:40;;;;;;;1.13;1.03;;;22.50;90.90;;;;;;5115704;28;20407;-80
2022/07/10 14:35:34;;;;;;;2.00;1.80;;;22.40;91.30;;;;;;5100657;28;20399;-80
2022/07/10 14:38:19;;;;;;;2.00;1.50;;;22.20;93.70;;;;;;5131843;28;20387;-80
2022/07/10 14:41:05;;;;;;;1.63;1.33;;;22.10;93.80;;;;;;5114124;28;20785;-78